Albuquerque, New Mexico
Current Conditions -  °F | °C
As of 2:52 AM on Thursday 18 Dec 2014 (Local Time) from KABQ Reporting Station
Scattered Clouds Scattered Clouds  
Wind Chill: 25°   Ceiling: Unl
Heat Index: 31°   Visibility: 10mi
Dew Point: 29°   Wind: 6mph
Humidity: 92%   Direction: 160°SSE
Pressure: 30.13"   Gusts: NA
Location:  35.08°N, 106.64°W
Report Text: KABQ 180952Z 16005KT 10SM SCT060 M01/M02 A3013 RMK AO2 SLP203 T10061017
Loading
Personal Weather Stations






























Interactive Weather Map New forecast layout! Learn more

10-Day Weather Forecast

Advertisements
Track Severe Weather on mobile